Time;durP1;ratioP1;P1;durP2;ratioP2;P2;SDS_P1;SDS_P2;PMS_P1;PMS_P2;Temp;Humidity;BMP_temperature;BMP_pressure;BME280_temperature;BME280_humidity;BME280_pressure;Samples;Min_cycle;Max_cycle;Signal;HPM_P1;HPM_P2
2023/11/28 00:02:19;;;;;;;5.85;2.47;;;2.00;99.90;;;;;;5100661;28;20046;-70
2023/11/28 00:04:45;;;;;;;3.25;2.45;;;2.10;99.90;;;;;;5101701;28;20036;-70
2023/11/28 00:07:11;;;;;;;3.08;2.03;;;2.00;99.90;;;;;;5102090;27;20039;-70
2023/11/28 00:09:37;;;;;;;3.17;1.92;;;2.10;99.90;;;;;;5098092;28;20044;-70
2023/11/28 00:12:03;;;;;;;2.38;1.63;;;2.00;99.90;;;;;;5098699;28;20074;-70
2023/11/28 00:14:28;;;;;;;2.03;1.42;;;1.90;99.90;;;;;;5133342;27;20122;-70
2023/11/28 00:16:54;;;;;;;2.00;1.45;;;1.90;99.90;;;;;;5129200;27;20073;-70
2023/11/28 00:19:20;;;;;;;5.32;1.55;;;1.90;99.90;;;;;;5101101;27;20125;-70
2023/11/28 00:21:45;;;;;;;2.55;1.15;;;1.80;99.90;;;;;;5131423;27;20036;-70
2023/11/28 00:24:11;;;;;;;3.33;1.27;;;1.70;99.90;;;;;;5102415;27;20044;-70
2023/11/28 00:26:36;;;;;;;4.82;1.40;;;1.70;99.90;;;;;;5129787;27;20680;-70
2023/11/28 00:29:02;;;;;;;3.97;1.63;;;1.70;99.90;;;;;;5101637;28;20545;-70
2023/11/28 00:31:28;;;;;;;2.47;1.00;;;1.60;99.90;;;;;;5131384;27;20046;-70
2023/11/28 00:33:53;;;;;;;2.40;0.77;;;1.60;99.90;;;;;;5100969;27;20039;-69
2023/11/28 00:36:20;;;;;;;1.52;0.73;;;1.50;99.90;;;;;;5103282;28;20051;-70
2023/11/28 00:38:46;;;;;;;2.45;0.70;;;1.50;99.90;;;;;;5103206;27;20031;-69
2023/11/28 00:41:12;;;;;;;1.13;0.77;;;1.40;99.90;;;;;;5130250;27;20051;-70
2023/11/28 00:43:38;;;;;;;1.80;0.80;;;1.40;99.90;;;;;;5101617;27;20443;-70
2023/11/28 00:46:03;;;;;;;3.90;1.52;;;1.30;99.90;;;;;;5130142;27;20047;-70
2023/11/28 00:48:29;;;;;;;0.90;0.47;;;1.30;99.90;;;;;;5101468;28;20047;-70
2023/11/28 00:50:55;;;;;;;1.95;0.60;;;1.20;99.90;;;;;;5129957;27;20490;-69
2023/11/28 00:53:20;;;;;;;2.10;0.75;;;1.20;99.90;;;;;;5101113;27;20043;-69
2023/11/28 00:55:47;;;;;;;1.48;0.60;;;1.30;99.90;;;;;;5100033;28;20529;-69
2023/11/28 00:58:12;;;;;;;2.70;0.50;;;1.20;99.90;;;;;;5107217;27;20072;-69
2023/11/28 01:00:38;;;;;;;0.75;0.50;;;1.20;99.90;;;;;;5102597;27;20023;-69
2023/11/28 01:03:03;;;;;;;1.13;0.55;;;1.30;99.90;;;;;;5104441;27;20031;-69
2023/11/28 01:05:30;;;;;;;1.13;0.52;;;1.20;99.90;;;;;;5101151;28;20050;-69
2023/11/28 01:07:58;;;;;;;0.85;0.38;;;1.20;99.90;;;;;;5100034;28;20126;-69
2023/11/28 01:10:24;;;;;;;1.52;0.60;;;1.20;99.90;;;;;;5099268;28;20119;-69
2023/11/28 01:12:50;;;;;;;0.50;0.30;;;1.20;99.90;;;;;;5102615;27;20465;-69
2023/11/28 01:15:17;;;;;;;0.82;0.30;;;1.20;99.90;;;;;;5099896;27;20031;-69
2023/11/28 01:17:42;;;;;;;1.23;0.43;;;1.20;99.90;;;;;;5096298;28;20040;-69
2023/11/28 01:20:08;;;;;;;0.40;0.20;;;1.20;99.90;;;;;;5105610;28;20031;-69
2023/11/28 01:22:34;;;;;;;1.00;0.38;;;1.30;99.90;;;;;;5117535;27;20036;-69
2023/11/28 01:24:59;;;;;;;0.80;0.65;;;1.20;99.90;;;;;;5101235;28;20381;-69
2023/11/28 01:27:25;;;;;;;1.70;0.55;;;1.20;99.90;;;;;;5100952;28;20051;-69
2023/11/28 01:29:50;;;;;;;2.00;0.50;;;1.20;99.90;;;;;;5101434;28;20122;-69
2023/11/28 01:32:16;;;;;;;1.13;0.30;;;1.20;99.90;;;;;;5099477;28;20482;-69
2023/11/28 01:34:42;;;;;;;0.57;0.28;;;1.20;99.90;;;;;;5084025;28;20494;-69
2023/11/28 01:37:07;;;;;;;1.38;0.30;;;1.20;99.90;;;;;;5130516;27;20122;-69
2023/11/28 01:39:33;;;;;;;0.70;0.35;;;1.20;99.90;;;;;;5128590;27;20036;-69
2023/11/28 01:41:59;;;;;;;0.68;0.20;;;1.10;99.90;;;;;;5098224;28;20387;-69
2023/11/28 01:44:24;;;;;;;1.65;0.35;;;1.20;99.90;;;;;;5133266;27;20039;-70
2023/11/28 01:46:51;;;;;;;0.57;0.30;;;1.20;99.90;;;;;;5130383;27;20556;-70
2023/11/28 01:49:18;;;;;;;2.25;0.70;;;1.20;99.90;;;;;;5094816;28;20131;-69
2023/11/28 01:51:44;;;;;;;2.00;0.30;;;1.20;99.90;;;;;;5130237;27;20462;-69
2023/11/28 01:54:10;;;;;;;1.20;0.32;;;1.20;99.90;;;;;;5083578;28;20073;-69
2023/11/28 01:56:36;;;;;;;1.75;0.70;;;1.20;99.90;;;;;;5104564;28;20032;-69
2023/11/28 01:59:05;;;;;;;1.02;0.50;;;1.20;99.90;;;;;;5099860;28;20062;-69
2023/11/28 02:01:31;;;;;;;2.47;0.50;;;1.20;99.90;;;;;;5101109;28;20165;-69
2023/11/28 02:03:57;;;;;;;1.70;0.70;;;1.20;99.90;;;;;;5100592;28;20035;-69
2023/11/28 02:06:23;;;;;;;1.55;0.90;;;1.20;99.90;;;;;;5099253;28;20036;-69
2023/11/28 02:08:48;;;;;;;1.75;0.60;;;1.20;99.90;;;;;;5098922;28;20431;-70
2023/11/28 02:11:14;;;;;;;0.88;0.50;;;1.20;99.90;;;;;;5131637;27;20043;-69
2023/11/28 02:13:40;;;;;;;0.80;0.60;;;1.20;99.90;;;;;;5129855;27;20044;-69
2023/11/28 02:16:13;;;;;;;1.10;0.40;;;1.20;99.90;;;;;;5130703;27;20081;-70
2023/11/28 02:18:40;;;;;;;1.52;0.88;;;1.20;99.90;;;;;;5100674;28;20123;-69
2023/11/28 02:21:06;;;;;;;3.25;0.77;;;1.20;99.90;;;;;;5101162;28;20032;-70
2023/11/28 02:23:33;;;;;;;2.38;0.70;;;1.20;99.90;;;;;;5102498;28;20084;-69
2023/11/28 02:26:05;;;;;;;2.25;0.60;;;1.20;99.90;;;;;;5104838;28;20032;-69
2023/11/28 02:28:31;;;;;;;1.80;0.60;;;1.20;99.90;;;;;;5106101;28;20039;-70
2023/11/28 02:30:58;;;;;;;1.25;0.63;;;1.20;99.90;;;;;;5104742;28;20058;-70
2023/11/28 02:33:24;;;;;;;1.05;0.50;;;1.10;99.90;;;;;;5133676;27;20085;-69
2023/11/28 02:35:52;;;;;;;1.60;0.73;;;1.10;99.90;;;;;;5100332;28;20044;-69
2023/11/28 02:38:18;;;;;;;2.10;0.60;;;1.10;99.90;;;;;;5100553;28;20135;-69
2023/11/28 02:40:43;;;;;;;2.33;0.50;;;1.20;99.90;;;;;;5099533;28;20124;-69
2023/11/28 02:43:09;;;;;;;2.65;0.40;;;1.10;99.90;;;;;;5101135;28;20070;-69
2023/11/28 02:45:35;;;;;;;0.95;0.75;;;1.10;99.90;;;;;;5097544;28;21792;-69
2023/11/28 02:48:01;;;;;;;1.38;0.50;;;1.10;99.90;;;;;;5101091;28;20063;-70
2023/11/28 02:50:27;;;;;;;1.85;1.55;;;1.10;99.90;;;;;;5100421;28;20071;-70
2023/11/28 02:52:53;;;;;;;2.33;0.50;;;1.10;99.90;;;;;;5107387;27;20055;-69
2023/11/28 02:55:18;;;;;;;1.52;0.63;;;1.10;99.90;;;;;;5104585;28;20036;-69
2023/11/28 02:57:44;;;;;;;1.70;0.68;;;1.10;99.90;;;;;;5131138;27;20041;-70
2023/11/28 03:00:10;;;;;;;1.80;0.50;;;1.20;99.90;;;;;;5102899;27;20044;-69
2023/11/28 03:02:36;;;;;;;3.35;0.70;;;1.10;99.90;;;;;;5101669;27;20673;-69
2023/11/28 03:05:03;;;;;;;1.67;0.40;;;1.20;99.90;;;;;;5105124;27;20047;-69
2023/11/28 03:07:29;;;;;;;1.98;0.40;;;1.20;99.90;;;;;;5133793;27;20359;-69
2023/11/28 03:09:55;;;;;;;1.40;0.43;;;1.10;99.90;;;;;;5133200;27;20047;-69
2023/11/28 03:12:20;;;;;;;2.25;1.15;;;1.10;99.90;;;;;;5101692;28;20039;-69
2023/11/28 03:14:46;;;;;;;2.00;0.60;;;1.10;99.90;;;;;;5104664;27;20051;-69
2023/11/28 03:17:12;;;;;;;2.88;0.60;;;1.10;99.90;;;;;;5104110;27;20148;-69
2023/11/28 03:19:37;;;;;;;3.63;0.52;;;1.20;99.90;;;;;;5104516;27;20065;-69
2023/11/28 03:22:03;;;;;;;1.30;0.63;;;1.20;99.90;;;;;;5107911;27;20101;-69
2023/11/28 03:24:29;;;;;;;1.35;0.52;;;1.20;99.90;;;;;;5104149;28;20532;-70
2023/11/28 03:26:54;;;;;;;2.83;0.40;;;1.20;99.90;;;;;;5103253;27;20116;-70
2023/11/28 03:29:20;;;;;;;4.22;0.90;;;1.20;99.90;;;;;;5105646;27;20039;-69
2023/11/28 03:31:46;;;;;;;4.70;2.45;;;1.20;99.90;;;;;;5103233;27;20051;-69
2023/11/28 03:34:12;;;;;;;0.98;0.50;;;1.20;99.90;;;;;;5108462;27;20045;-69
2023/11/28 03:36:38;;;;;;;0.82;0.40;;;1.10;99.90;;;;;;5101860;27;20493;-69
2023/11/28 03:39:03;;;;;;;1.13;0.60;;;1.30;99.90;;;;;;5131498;27;20780;-69
2023/11/28 03:41:29;;;;;;;1.65;0.60;;;1.20;99.90;;;;;;5104068;27;20393;-69
2023/11/28 03:43:55;;;;;;;6.20;2.50;;;1.20;99.90;;;;;;5102990;28;20473;-69
2023/11/28 03:46:21;;;;;;;1.83;0.68;;;1.20;99.90;;;;;;5104960;27;20040;-69
2023/11/28 03:48:46;;;;;;;1.88;0.80;;;1.20;99.90;;;;;;5099245;28;20043;-69
2023/11/28 03:51:12;;;;;;;1.92;0.50;;;1.30;99.90;;;;;;5134340;27;20050;-69
2023/11/28 03:53:38;;;;;;;2.15;0.60;;;1.30;99.90;;;;;;5100865;28;20106;-69
2023/11/28 03:56:08;;;;;;;2.63;0.80;;;1.40;99.90;;;;;;5130016;27;20489;-70
2023/11/28 03:58:34;;;;;;;4.65;1.05;;;1.40;99.90;;;;;;5100690;27;20032;-70
2023/11/28 04:01:00;;;;;;;1.50;0.90;;;1.40;99.90;;;;;;5133737;27;20472;-69
2023/11/28 04:03:26;;;;;;;2.90;0.80;;;1.50;99.90;;;;;;5101003;28;20382;-69
2023/11/28 04:05:52;;;;;;;1.73;0.85;;;1.50;99.90;;;;;;5103078;27;20036;-70
2023/11/28 04:08:18;;;;;;;1.45;0.80;;;1.50;99.90;;;;;;5130283;27;20121;-69
2023/11/28 04:10:43;;;;;;;2.83;0.77;;;1.50;99.90;;;;;;5115867;27;20047;-70
2023/11/28 04:13:09;;;;;;;3.30;1.23;;;1.60;99.90;;;;;;5101850;28;20039;-70
2023/11/28 04:15:34;;;;;;;2.70;0.70;;;1.60;99.90;;;;;;5132290;27;20132;-69
2023/11/28 04:18:01;;;;;;;2.45;0.80;;;1.70;99.90;;;;;;5131944;27;20484;-69
2023/11/28 04:20:26;;;;;;;2.38;0.40;;;1.70;99.90;;;;;;5114948;27;20500;-70
2023/11/28 04:22:52;;;;;;;2.72;0.68;;;1.80;99.90;;;;;;5098669;28;20032;-69
2023/11/28 04:25:18;;;;;;;1.05;0.50;;;1.80;99.90;;;;;;5101926;28;20031;-69
2023/11/28 04:27:44;;;;;;;2.20;0.55;;;1.90;99.90;;;;;;5097991;28;20154;-69
2023/11/28 04:30:10;;;;;;;1.80;0.60;;;1.80;99.90;;;;;;5127907;27;20051;-70
2023/11/28 04:32:36;;;;;;;0.93;0.63;;;1.80;99.90;;;;;;5099209;28;20454;-70
2023/11/28 04:35:02;;;;;;;1.25;0.60;;;1.80;99.90;;;;;;5094920;28;20052;-69
2023/11/28 04:37:28;;;;;;;3.45;0.80;;;1.80;99.90;;;;;;5097991;28;20081;-69
2023/11/28 04:39:53;;;;;;;2.15;0.60;;;1.80;99.90;;;;;;5094436;28;20074;-70
2023/11/28 04:42:19;;;;;;;3.33;0.65;;;1.80;99.90;;;;;;5098784;28;21496;-69
2023/11/28 04:44:45;;;;;;;3.13;0.90;;;1.90;99.90;;;;;;5097009;28;20036;-69
2023/11/28 04:47:10;;;;;;;2.33;1.00;;;1.90;99.90;;;;;;5094358;28;20043;-69
2023/11/28 04:49:36;;;;;;;2.88;0.93;;;1.90;99.90;;;;;;5079348;28;20051;-69
2023/11/28 04:52:02;;;;;;;2.13;0.80;;;1.90;99.90;;;;;;5096886;28;20478;-69
2023/11/28 04:54:27;;;;;;;1.58;0.80;;;1.90;99.90;;;;;;5130475;27;20696;-70
2023/11/28 04:56:53;;;;;;;3.20;0.85;;;2.00;99.90;;;;;;5099046;28;20089;-70
2023/11/28 04:59:19;;;;;;;2.28;1.08;;;1.90;99.90;;;;;;5095892;28;20047;-70
2023/11/28 05:01:46;;;;;;;2.30;0.80;;;2.00;99.90;;;;;;5097781;28;20027;-69
2023/11/28 05:04:13;;;;;;;2.03;0.85;;;2.00;99.90;;;;;;5113037;27;20062;-69
2023/11/28 05:06:39;;;;;;;1.48;1.17;;;2.00;99.90;;;;;;5094500;28;20048;-70
2023/11/28 05:09:05;;;;;;;4.30;1.27;;;2.00;99.90;;;;;;5098283;28;20492;-69
2023/11/28 05:11:31;;;;;;;5.38;1.70;;;1.90;99.90;;;;;;5129120;27;20416;-70
2023/11/28 05:13:58;;;;;;;5.63;2.75;;;2.00;99.90;;;;;;5093737;28;20093;-70
2023/11/28 05:16:24;;;;;;;3.15;1.88;;;1.90;99.90;;;;;;5099316;28;20059;-70
2023/11/28 05:18:50;;;;;;;4.25;1.63;;;1.80;99.90;;;;;;5084494;28;20099;-69
2023/11/28 05:21:16;;;;;;;3.20;1.80;;;1.80;99.90;;;;;;5102439;28;20523;-70
2023/11/28 05:23:42;;;;;;;3.03;1.17;;;1.70;99.90;;;;;;5100699;28;20028;-70
2023/11/28 05:26:08;;;;;;;2.40;1.73;;;1.70;99.90;;;;;;5102556;28;20058;-70
2023/11/28 05:28:33;;;;;;;3.33;1.58;;;1.70;99.90;;;;;;5101587;28;20032;-70
2023/11/28 05:30:59;;;;;;;3.45;1.40;;;1.60;99.90;;;;;;5128822;27;20044;-70
2023/11/28 05:33:25;;;;;;;3.58;1.77;;;1.60;99.90;;;;;;5100600;28;20035;-70
2023/11/28 05:35:51;;;;;;;3.53;2.00;;;1.60;99.90;;;;;;5100360;28;20052;-69
2023/11/28 05:38:16;;;;;;;4.97;1.67;;;1.60;99.90;;;;;;5125428;27;20036;-70
2023/11/28 05:40:42;;;;;;;3.05;1.50;;;1.60;99.90;;;;;;5125310;27;20126;-69
2023/11/28 05:43:08;;;;;;;2.53;1.42;;;1.60;99.90;;;;;;5129019;27;20083;-70
2023/11/28 05:45:34;;;;;;;3.15;1.58;;;1.70;99.90;;;;;;5096729;28;20050;-69
2023/11/28 05:47:59;;;;;;;2.53;1.35;;;1.70;99.90;;;;;;5101903;28;20044;-70
2023/11/28 05:50:25;;;;;;;1.67;1.42;;;1.70;99.90;;;;;;5083487;28;20050;-70
2023/11/28 05:52:52;;;;;;;1.92;1.30;;;1.70;99.90;;;;;;5099634;28;20058;-69
2023/11/28 05:55:20;;;;;;;5.13;1.70;;;1.70;99.90;;;;;;5092595;28;20055;-70
2023/11/28 05:57:46;;;;;;;3.58;1.60;;;1.70;99.90;;;;;;5097369;28;20042;-69
2023/11/28 06:00:13;;;;;;;3.33;1.30;;;1.70;99.90;;;;;;5088867;28;20040;-69
2023/11/28 06:02:39;;;;;;;6.05;1.90;;;1.70;99.90;;;;;;5097780;28;20047;-70
2023/11/28 06:05:06;;;;;;;3.60;1.65;;;1.70;99.90;;;;;;5093812;28;20054;-70
2023/11/28 06:07:32;;;;;;;2.72;1.50;;;1.80;99.90;;;;;;5092027;28;20055;-69
2023/11/28 06:09:58;;;;;;;2.78;2.08;;;1.60;99.90;;;;;;5098570;28;20036;-69
2023/11/28 06:12:24;;;;;;;1.88;1.40;;;1.70;99.90;;;;;;5099167;28;20039;-69
2023/11/28 06:14:49;;;;;;;5.68;1.95;;;1.70;99.90;;;;;;5098901;28;20481;-69
2023/11/28 06:17:15;;;;;;;2.70;1.50;;;1.70;99.90;;;;;;5098718;28;20108;-69
2023/11/28 06:19:40;;;;;;;3.55;1.42;;;1.70;99.90;;;;;;5100754;28;20028;-69
2023/11/28 06:22:06;;;;;;;5.20;1.83;;;1.70;99.90;;;;;;5101023;28;20040;-70
2023/11/28 06:24:32;;;;;;;3.63;1.80;;;1.70;99.90;;;;;;5103532;28;20392;-69
2023/11/28 06:26:58;;;;;;;3.45;2.60;;;1.70;99.90;;;;;;5101848;28;20123;-69
2023/11/28 06:29:23;;;;;;;2.58;1.70;;;1.70;99.90;;;;;;5102035;28;20036;-69
2023/11/28 06:31:49;;;;;;;3.80;1.60;;;1.70;99.90;;;;;;5134704;27;20046;-69
2023/11/28 06:34:15;;;;;;;2.33;1.50;;;1.70;99.90;;;;;;5102519;28;20047;-70
2023/11/28 06:36:41;;;;;;;1.65;1.20;;;1.80;99.90;;;;;;5101681;28;20040;-69
2023/11/28 06:39:07;;;;;;;2.97;1.73;;;1.70;99.90;;;;;;5102610;27;20038;-69
2023/11/28 06:41:32;;;;;;;2.70;2.10;;;1.70;99.90;;;;;;5131516;27;20035;-69
2023/11/28 06:43:58;;;;;;;2.70;1.60;;;1.80;99.90;;;;;;5102405;28;20036;-69
2023/11/28 06:46:25;;;;;;;4.78;1.58;;;1.70;99.90;;;;;;5103882;28;20043;-69
2023/11/28 06:48:51;;;;;;;3.22;1.67;;;1.70;99.90;;;;;;5102725;28;20048;-70
2023/11/28 06:51:17;;;;;;;6.85;1.83;;;1.80;99.90;;;;;;5102553;28;20047;-69
2023/11/28 06:53:42;;;;;;;2.85;1.50;;;1.70;99.90;;;;;;5104204;27;20078;-69
2023/11/28 06:56:09;;;;;;;4.75;1.45;;;1.70;99.90;;;;;;5104653;28;20123;-69
2023/11/28 06:58:35;;;;;;;4.78;1.50;;;1.70;99.90;;;;;;5101491;28;20043;-69
2023/11/28 07:01:00;;;;;;;2.88;1.40;;;1.80;99.90;;;;;;5101299;28;20119;-69
2023/11/28 07:03:31;;;;;;;4.35;1.70;;;1.80;99.90;;;;;;5104887;27;20035;-69
2023/11/28 07:05:57;;;;;;;4.72;2.10;;;1.80;99.90;;;;;;5136158;27;20055;-70
2023/11/28 07:08:23;;;;;;;2.60;1.35;;;1.80;99.90;;;;;;5106746;28;20043;-69
2023/11/28 07:10:49;;;;;;;2.10;1.55;;;1.80;99.90;;;;;;5130944;27;20100;-69
2023/11/28 07:13:14;;;;;;;3.65;1.65;;;1.80;99.90;;;;;;5132902;27;20530;-69
2023/11/28 07:15:40;;;;;;;3.90;1.60;;;1.80;99.90;;;;;;5101836;28;20039;-69
2023/11/28 07:18:06;;;;;;;2.67;1.63;;;1.90;99.90;;;;;;5133975;27;20036;-68
2023/11/28 07:20:32;;;;;;;3.35;1.17;;;1.80;99.90;;;;;;5101464;28;20044;-69
2023/11/28 07:22:57;;;;;;;2.50;1.35;;;1.80;99.90;;;;;;5101366;28;20046;-69
2023/11/28 07:25:23;;;;;;;3.35;2.00;;;1.90;99.90;;;;;;5102003;28;20044;-69
2023/11/28 07:27:48;;;;;;;2.95;1.40;;;1.80;99.90;;;;;;5101188;28;20042;-69
2023/11/28 07:30:16;;;;;;;4.25;1.60;;;1.90;99.90;;;;;;5100637;28;20085;-69
2023/11/28 07:32:42;;;;;;;3.60;1.58;;;1.90;99.90;;;;;;5103046;28;20115;-69
2023/11/28 07:35:08;;;;;;;4.60;1.42;;;1.90;99.90;;;;;;5100290;28;20485;-69
2023/11/28 07:37:34;;;;;;;3.83;1.58;;;1.90;99.90;;;;;;5100793;27;20020;-68
2023/11/28 07:39:59;;;;;;;4.63;1.55;;;1.90;99.90;;;;;;5103205;27;20033;-69
2023/11/28 07:42:25;;;;;;;7.00;1.73;;;1.90;99.90;;;;;;5103768;28;20062;-69
2023/11/28 07:44:51;;;;;;;2.83;1.40;;;1.90;99.90;;;;;;5134029;27;20036;-69
2023/11/28 07:47:16;;;;;;;2.35;1.70;;;1.90;99.90;;;;;;5100535;27;20123;-69
2023/11/28 07:49:42;;;;;;;6.07;1.65;;;1.90;99.90;;;;;;5101988;27;20039;-69
2023/11/28 07:52:09;;;;;;;3.05;1.75;;;2.00;99.90;;;;;;5131659;27;20047;-69
2023/11/28 07:54:34;;;;;;;3.15;1.30;;;2.00;99.90;;;;;;5083825;27;20028;-69
2023/11/28 07:57:00;;;;;;;3.75;1.38;;;2.00;99.90;;;;;;5132627;27;20442;-69
2023/11/28 07:59:26;;;;;;;2.63;1.40;;;2.00;99.90;;;;;;5103407;28;20119;-69
2023/11/28 08:01:51;;;;;;;2.40;1.23;;;2.00;99.90;;;;;;5100937;28;20040;-69
2023/11/28 08:04:17;;;;;;;3.35;1.20;;;2.10;99.90;;;;;;5099133;28;20040;-69
2023/11/28 08:06:43;;;;;;;4.57;1.33;;;2.10;99.90;;;;;;5103434;28;20047;-69
2023/11/28 08:09:08;;;;;;;2.03;1.15;;;2.10;99.90;;;;;;5084883;28;20140;-69
2023/11/28 08:11:34;;;;;;;2.78;1.48;;;2.10;99.90;;;;;;5102922;27;20427;-69
2023/11/28 08:14:00;;;;;;;2.53;1.40;;;2.10;99.90;;;;;;5092376;28;20075;-69
2023/11/28 08:16:25;;;;;;;4.45;1.15;;;2.20;99.90;;;;;;5099403;28;20444;-69
2023/11/28 08:18:51;;;;;;;4.28;1.48;;;2.20;99.90;;;;;;5132783;27;20039;-69
2023/11/28 08:21:17;;;;;;;3.58;1.20;;;2.30;99.90;;;;;;5116076;27;20040;-69
2023/11/28 08:23:45;;;;;;;1.90;1.15;;;2.30;99.90;;;;;;5100491;27;20491;-69
2023/11/28 08:26:10;;;;;;;1.75;1.00;;;2.40;99.90;;;;;;5099452;27;20051;-69
2023/11/28 08:28:36;;;;;;;2.67;0.93;;;2.40;99.90;;;;;;5089239;28;20043;-69
2023/11/28 08:31:02;;;;;;;2.88;1.90;;;2.40;99.90;;;;;;5095804;27;20100;-69
2023/11/28 08:33:28;;;;;;;3.85;1.50;;;2.40;99.90;;;;;;5100964;28;20027;-69
2023/11/28 08:35:53;;;;;;;3.15;1.58;;;2.50;99.90;;;;;;5095635;28;20040;-69
2023/11/28 08:38:19;;;;;;;1.90;1.23;;;2.50;99.90;;;;;;5133847;27;20048;-69
2023/11/28 08:40:45;;;;;;;4.32;1.70;;;2.50;99.90;;;;;;5098488;28;20500;-69
2023/11/28 08:43:11;;;;;;;3.00;1.50;;;2.40;99.90;;;;;;5100051;28;20047;-69
2023/11/28 08:45:37;;;;;;;1.77;1.23;;;2.30;99.90;;;;;;5133710;27;20043;-69
2023/11/28 08:48:02;;;;;;;3.20;1.27;;;2.20;99.90;;;;;;5097643;27;20056;-69
2023/11/28 08:50:28;;;;;;;2.50;1.40;;;2.20;99.90;;;;;;5101723;28;20047;-69
2023/11/28 08:52:53;;;;;;;3.65;1.52;;;2.20;99.90;;;;;;5098592;28;20389;-68
2023/11/28 08:55:19;;;;;;;4.18;1.42;;;2.10;99.90;;;;;;5098188;27;20044;-69
2023/11/28 08:57:45;;;;;;;4.55;1.80;;;2.10;99.90;;;;;;5096210;27;20180;-69
2023/11/28 09:00:13;;;;;;;4.30;1.73;;;2.20;99.90;;;;;;5134065;27;20055;-68
2023/11/28 09:02:38;;;;;;;2.15;1.65;;;2.20;99.90;;;;;;5099896;27;20073;-69
2023/11/28 09:05:04;;;;;;;2.45;1.77;;;2.20;99.90;;;;;;5131527;27;20070;-69
2023/11/28 09:07:30;;;;;;;4.80;1.60;;;2.20;99.90;;;;;;5087669;28;20071;-69
2023/11/28 09:09:56;;;;;;;3.00;1.77;;;2.30;99.90;;;;;;5102106;28;20452;-68
2023/11/28 09:12:21;;;;;;;5.15;1.70;;;2.20;99.90;;;;;;5104069;27;20067;-68
2023/11/28 09:14:47;;;;;;;4.90;2.38;;;2.20;99.90;;;;;;5100300;27;20055;-69
2023/11/28 09:17:14;;;;;;;2.92;1.60;;;2.30;99.90;;;;;;5099260;27;20520;-69
2023/11/28 09:19:43;;;;;;;2.97;1.55;;;2.30;99.90;;;;;;5133670;27;20063;-69
2023/11/28 09:22:09;;;;;;;3.28;1.65;;;2.30;99.90;;;;;;5096735;28;20040;-68
2023/11/28 09:24:34;;;;;;;4.07;1.55;;;2.30;99.90;;;;;;5097435;28;20028;-69
2023/11/28 09:27:00;;;;;;;4.57;1.92;;;2.40;99.90;;;;;;5080861;28;20082;-69
2023/11/28 09:29:25;;;;;;;2.45;1.73;;;2.50;99.90;;;;;;5128635;27;20400;-69
2023/11/28 09:31:51;;;;;;;2.50;1.83;;;2.50;99.90;;;;;;5097058;28;20044;-69
2023/11/28 09:34:17;;;;;;;5.57;2.15;;;2.50;99.90;;;;;;5097882;28;20367;-69
2023/11/28 09:36:43;;;;;;;3.28;1.77;;;2.50;99.90;;;;;;5093193;28;20052;-69
2023/11/28 09:39:10;;;;;;;2.92;1.80;;;2.50;99.90;;;;;;5128838;27;20082;-69
2023/11/28 09:41:38;;;;;;;2.60;2.03;;;2.50;99.90;;;;;;5083854;28;20401;-69
2023/11/28 09:44:07;;;;;;;4.03;1.92;;;2.50;99.90;;;;;;5096712;28;20048;-68
2023/11/28 09:46:35;;;;;;;2.67;1.65;;;2.60;99.90;;;;;;5133405;27;20058;-69
2023/11/28 09:49:03;;;;;;;3.75;2.42;;;2.70;99.90;;;;;;5100523;28;20037;-69
2023/11/28 09:51:31;;;;;;;4.97;1.83;;;2.70;99.90;;;;;;5129326;27;20048;-69
2023/11/28 09:53:58;;;;;;;6.85;1.83;;;2.70;99.90;;;;;;5130224;27;20070;-69
2023/11/28 09:56:25;;;;;;;3.08;1.75;;;2.70;99.90;;;;;;5097832;28;20079;-68
2023/11/28 09:58:58;;;;;;;3.70;1.65;;;2.80;99.90;;;;;;5097626;28;20052;-69
2023/11/28 10:01:27;;;;;;;6.18;2.92;;;2.70;99.90;;;;;;5102624;27;20040;-68
2023/11/28 10:03:53;;;;;;;2.85;1.58;;;2.70;99.90;;;;;;5103045;28;20063;-69
2023/11/28 10:06:21;;;;;;;5.53;1.70;;;2.70;99.90;;;;;;5133062;27;20433;-69
2023/11/28 10:08:52;;;;;;;2.85;2.20;;;2.70;99.90;;;;;;5105778;27;20408;-69
2023/11/28 10:11:21;;;;;;;4.13;1.95;;;2.80;99.90;;;;;;5106716;27;20046;-68
2023/11/28 10:13:47;;;;;;;3.75;1.70;;;2.80;99.90;;;;;;5102642;27;20047;-69
2023/11/28 10:16:16;;;;;;;4.18;2.05;;;2.80;99.90;;;;;;5131932;27;20043;-69
2023/11/28 10:18:47;;;;;;;4.93;1.58;;;2.90;99.90;;;;;;5105665;27;20044;-69
2023/11/28 10:21:14;;;;;;;4.25;1.65;;;2.90;99.90;;;;;;5118833;27;20063;-69
2023/11/28 10:23:46;;;;;;;2.90;1.63;;;2.90;99.90;;;;;;5130778;27;20048;-71
2023/11/28 10:26:12;;;;;;;3.83;1.48;;;3.10;99.90;;;;;;5100833;27;20054;-75
2023/11/28 10:28:38;;;;;;;2.30;1.23;;;3.20;99.90;;;;;;5136722;27;20127;-76
2023/11/28 10:31:06;;;;;;;2.20;1.15;;;3.10;99.90;;;;;;5102360;28;20065;-77
2023/11/28 10:33:33;;;;;;;1.50;1.30;;;3.20;99.90;;;;;;5103746;28;20035;-77
2023/11/28 10:35:59;;;;;;;2.90;1.20;;;3.20;99.90;;;;;;5137795;27;20051;-77
2023/11/28 10:38:26;;;;;;;2.97;1.23;;;3.20;99.90;;;;;;5107115;28;20035;-78
2023/11/28 10:40:53;;;;;;;2.25;1.10;;;3.20;99.90;;;;;;5106647;28;20069;-66
2023/11/28 10:43:19;;;;;;;2.80;1.42;;;3.20;99.90;;;;;;5136284;27;20068;-71
2023/11/28 10:45:46;;;;;;;2.28;1.25;;;3.30;99.90;;;;;;5103011;27;20104;-72
2023/11/28 10:48:12;;;;;;;2.00;1.20;;;3.40;99.90;;;;;;5104030;27;20044;-71
2023/11/28 10:50:38;;;;;;;3.85;1.20;;;3.40;99.90;;;;;;5102575;27;20067;-71
2023/11/28 10:53:04;;;;;;;1.70;1.17;;;3.40;99.90;;;;;;5100965;27;20121;-71
2023/11/28 10:55:36;;;;;;;3.97;1.10;;;3.40;99.90;;;;;;5102495;27;20179;-71
2023/11/28 10:58:04;;;;;;;2.95;1.23;;;3.40;99.90;;;;;;5097452;28;20040;-73
2023/11/28 11:00:35;;;;;;;2.20;1.13;;;3.50;99.90;;;;;;5103124;27;20082;-72
2023/11/28 11:03:02;;;;;;;1.85;0.85;;;3.50;99.90;;;;;;5135670;27;20040;-71
2023/11/28 11:05:29;;;;;;;3.33;0.90;;;3.50;99.90;;;;;;5101584;28;20085;-70
2023/11/28 11:07:57;;;;;;;2.30;0.95;;;3.50;99.90;;;;;;5104304;28;20050;-70
2023/11/28 11:10:23;;;;;;;1.92;0.82;;;3.50;99.90;;;;;;5106306;27;20088;-69
2023/11/28 11:12:59;;;;;;;2.03;0.82;;;3.50;99.90;;;;;;5103605;28;20039;-69
2023/11/28 11:15:28;;;;;;;;;;;3.50;99.90;;;;;;5111200;28;20540;-69
2023/11/28 11:18:27;;;;;;;2.15;0.90;;;3.40;99.90;;;;;;5137953;27;19915;-70
2023/11/28 11:20:58;;;;;;;2.47;0.80;;;3.40;99.90;;;;;;5101645;27;20047;-69
2023/11/28 11:23:28;;;;;;;2.67;0.98;;;3.30;99.90;;;;;;5099629;27;20429;-68
2023/11/28 11:25:53;;;;;;;3.85;1.00;;;3.30;99.90;;;;;;5101513;28;20504;-68
2023/11/28 11:28:19;;;;;;;2.28;1.30;;;3.50;99.90;;;;;;5136588;27;20051;-68
2023/11/28 11:30:45;;;;;;;1.33;0.80;;;3.60;99.90;;;;;;5130898;27;20055;-72
2023/11/28 11:33:12;;;;;;;1.98;0.85;;;3.90;99.90;;;;;;5135817;27;20043;-69
2023/11/28 11:36:07;;;;;;;1.45;0.80;;;3.90;99.90;;;;;;5136621;27;20046;-70
2023/11/28 11:38:34;;;;;;;2.47;1.13;;;4.10;99.90;;;;;;5100672;28;20035;-70
2023/11/28 11:41:01;;;;;;;1.15;0.73;;;4.00;99.90;;;;;;5101517;28;20044;-70
2023/11/28 11:43:28;;;;;;;3.00;0.88;;;4.10;99.90;;;;;;5103746;28;20043;-70
2023/11/28 11:46:04;;;;;;;2.05;1.08;;;4.10;99.90;;;;;;5097827;28;20630;-71
2023/11/28 11:48:30;;;;;;;2.80;0.57;;;4.10;99.90;;;;;;5134849;27;20596;-71
2023/11/28 11:50:57;;;;;;;1.67;0.70;;;4.10;99.90;;;;;;5101332;28;20050;-70
2023/11/28 11:53:23;;;;;;;3.17;0.80;;;4.00;99.90;;;;;;5136028;27;20130;-67
2023/11/28 11:55:49;;;;;;;3.03;1.00;;;3.90;99.90;;;;;;5136046;27;20400;-67
2023/11/28 11:58:15;;;;;;;1.83;0.90;;;3.90;99.90;;;;;;5101926;27;20044;-67
2023/11/28 12:00:41;;;;;;;2.20;0.90;;;3.90;99.90;;;;;;5100961;27;20042;-67
2023/11/28 12:03:07;;;;;;;1.75;0.88;;;3.90;99.90;;;;;;5102388;28;20023;-67
2023/11/28 12:05:36;;;;;;;3.17;0.90;;;3.80;99.90;;;;;;5135182;27;20109;-67
2023/11/28 12:08:03;;;;;;;3.00;1.10;;;3.90;99.90;;;;;;5101002;28;20497;-67
2023/11/28 12:10:29;;;;;;;2.42;0.70;;;4.00;99.90;;;;;;5099293;28;20047;-67
2023/11/28 12:12:55;;;;;;;4.05;0.95;;;3.90;99.90;;;;;;5100090;27;20200;-67
2023/11/28 12:15:21;;;;;;;2.80;0.90;;;3.80;99.90;;;;;;5094278;27;20047;-67
2023/11/28 12:17:47;;;;;;;3.95;1.00;;;3.90;99.90;;;;;;5099278;28;20101;-67
2023/11/28 12:20:13;;;;;;;1.40;1.10;;;4.00;99.90;;;;;;5134203;27;20114;-67
2023/11/28 12:22:41;;;;;;;1.67;0.70;;;4.00;99.90;;;;;;5102775;28;20031;-67
2023/11/28 12:25:18;;;;;;;10.43;2.50;;;4.10;99.90;;;;;;5097443;27;20047;-67
2023/11/28 12:27:47;;;;;;;3.20;0.95;;;4.10;99.90;;;;;;5097996;28;20115;-67
2023/11/28 12:30:13;;;;;;;1.17;0.73;;;4.10;99.90;;;;;;5100648;27;20118;-67
2023/11/28 12:32:39;;;;;;;1.75;0.70;;;4.20;99.90;;;;;;5130672;27;20494;-67
2023/11/28 12:35:06;;;;;;;3.92;0.90;;;4.00;99.90;;;;;;5101004;27;20043;-67
2023/11/28 12:37:31;;;;;;;2.50;1.05;;;4.00;99.90;;;;;;5133666;27;20048;-67
2023/11/28 12:39:57;;;;;;;1.65;0.70;;;4.00;99.90;;;;;;5098671;28;20032;-66
2023/11/28 12:42:26;;;;;;;1.52;0.68;;;3.90;99.90;;;;;;5098599;28;20050;-67
2023/11/28 12:44:56;;;;;;;2.25;0.55;;;3.90;99.90;;;;;;5099111;28;20553;-67
2023/11/28 12:47:23;;;;;;;1.35;0.60;;;3.80;99.90;;;;;;5130115;27;20519;-67
2023/11/28 12:49:48;;;;;;;4.22;0.70;;;3.80;99.90;;;;;;5099393;28;20051;-67
2023/11/28 12:52:24;;;;;;;1.92;0.60;;;3.70;99.90;;;;;;5100830;28;20118;-67
2023/11/28 12:54:50;;;;;;;1.58;0.52;;;3.40;99.90;;;;;;5100521;28;20055;-67